createdAt,value
2022-11-26T00:00:15.072Z,19.75
2022-11-26T00:02:43.137Z,17.20
2022-11-26T00:05:13.372Z,17.40
2022-11-26T00:07:41.532Z,18.00
2022-11-26T00:10:15.135Z,14.50
2022-11-26T00:12:43.111Z,28.20
2022-11-26T00:15:16.001Z,22.00
2022-11-26T00:17:44.042Z,17.00
2022-11-26T00:20:13.492Z,24.25
2022-11-26T00:22:42.407Z,26.00
2022-11-26T00:25:17.695Z,21.80
2022-11-26T00:27:45.711Z,31.75
2022-11-26T00:30:18.161Z,23.00
2022-11-26T00:32:46.200Z,23.00
2022-11-26T00:35:15.729Z,23.00
2022-11-26T00:37:45.738Z,26.25
2022-11-26T00:40:21.290Z,27.00
2022-11-26T00:42:49.454Z,22.00
2022-11-26T00:45:18.943Z,20.20
2022-11-26T00:47:46.932Z,29.50
2022-11-26T00:50:17.580Z,28.00
2022-11-26T00:52:45.671Z,20.00
2022-11-26T00:55:19.120Z,21.80
2022-11-26T00:57:47.098Z,20.00
2022-11-26T01:00:17.153Z,22.00
2022-11-26T01:02:45.368Z,20.80
2022-11-26T01:05:13.428Z,21.25
2022-11-26T01:07:42.994Z,17.00
2022-11-26T01:10:16.950Z,22.20
2022-11-26T01:12:44.982Z,21.00
2022-11-26T01:15:13.042Z,19.50
2022-11-26T01:17:41.036Z,27.67
2022-11-26T01:20:22.809Z,26.00
2022-11-26T01:22:54.865Z,23.50
2022-11-26T01:25:23.052Z,23.80
2022-11-26T01:27:51.061Z,22.00
2022-11-26T01:30:21.160Z,20.80
2022-11-26T01:32:49.556Z,25.50
2022-11-26T01:35:17.692Z,28.40
2022-11-26T01:37:45.750Z,24.80
2022-11-26T01:40:54.395Z,21.00
2022-11-26T01:43:25.904Z,26.25
2022-11-26T01:45:53.975Z,27.50
2022-11-26T01:48:29.645Z,21.75
2022-11-26T01:51:02.647Z,30.50
2022-11-26T01:53:49.775Z,26.00
2022-11-26T01:56:22.060Z,20.25
2022-11-26T01:58:52.007Z,22.00
2022-11-26T02:01:20.120Z,25.80
2022-11-26T02:03:53.287Z,20.00
2022-11-26T02:06:24.596Z,26.00
2022-11-26T02:08:52.607Z,22.20
2022-11-26T02:11:23.116Z,21.40
2022-11-26T02:13:52.072Z,26.00
2022-11-26T02:16:26.050Z,22.00
2022-11-26T02:18:59.168Z,21.20
2022-11-26T02:21:27.821Z,22.40
2022-11-26T02:24:13.987Z,23.60
2022-11-26T02:27:15.630Z,22.00
2022-11-26T02:30:07.877Z,28.75
2022-11-26T02:32:42.160Z,27.00
2022-11-26T02:35:12.875Z,28.75
2022-11-26T02:37:43.505Z,27.25
2022-11-26T02:40:12.022Z,23.00
2022-11-26T02:42:40.029Z,25.20
2022-11-26T02:45:10.208Z,25.80
2022-11-26T02:47:39.024Z,24.80
2022-11-26T02:50:09.257Z,25.80
2022-11-26T02:52:37.258Z,29.00
2022-11-26T02:55:05.808Z,23.00
2022-11-26T02:57:33.960Z,21.00
2022-11-26T03:00:01.985Z,25.33
2022-11-26T03:02:35.882Z,23.40
2022-11-26T03:05:04.004Z,21.40
2022-11-26T03:07:32.248Z,30.00
2022-11-26T03:10:01.235Z,26.40
2022-11-26T03:12:29.404Z,23.40
2022-11-26T03:14:57.478Z,25.20
2022-11-26T03:17:25.474Z,19.20
2022-11-26T03:19:55.147Z,22.60
2022-11-26T03:22:23.159Z,21.50
2022-11-26T03:24:51.241Z,23.00
2022-11-26T03:27:19.253Z,20.60
2022-11-26T03:29:47.286Z,27.50
2022-11-26T03:32:15.290Z,23.75
2022-11-26T03:34:43.970Z,28.80
2022-11-26T03:37:13.387Z,22.75
2022-11-26T03:39:41.610Z,30.00
2022-11-26T03:42:09.662Z,22.50
2022-11-26T03:44:38.241Z,23.00
2022-11-26T03:47:06.532Z,22.00
2022-11-26T03:49:34.624Z,34.00
2022-11-26T03:52:02.644Z,19.50
2022-11-26T03:54:32.067Z,21.50
2022-11-26T03:57:00.096Z,23.20
2022-11-26T03:59:28.100Z,22.40
2022-11-26T04:01:56.249Z,32.40
2022-11-26T04:04:24.290Z,26.20
2022-11-26T04:06:52.318Z,24.60
2022-11-26T04:09:20.323Z,24.00
2022-11-26T04:11:49.779Z,22.80
2022-11-26T04:14:17.841Z,31.67
2022-11-26T04:16:45.927Z,24.20
2022-11-26T04:19:13.997Z,33.00
2022-11-26T04:21:42.025Z,23.60
2022-11-26T04:24:10.044Z,23.50
2022-11-26T04:26:38.115Z,21.00
2022-11-26T04:29:07.585Z,26.20
2022-11-26T04:31:35.669Z,21.50
2022-11-26T04:34:03.713Z,25.25
2022-11-26T04:36:32.010Z,29.25
2022-11-26T04:39:00.120Z,27.50
2022-11-26T04:41:28.161Z,20.50
2022-11-26T04:43:56.162Z,21.20
2022-11-26T04:46:25.533Z,22.00
2022-11-26T04:48:53.533Z,22.80
2022-11-26T04:51:21.556Z,26.40
2022-11-26T04:53:51.398Z,26.50
2022-11-26T04:56:22.686Z,24.25
2022-11-26T04:58:50.698Z,23.00
2022-11-26T05:01:18.788Z,21.50
2022-11-26T05:03:48.178Z,21.80
2022-11-26T05:06:16.248Z,21.00
2022-11-26T05:08:44.248Z,25.00
2022-11-26T05:11:12.292Z,22.20
2022-11-26T05:13:40.293Z,23.00
2022-11-26T05:16:08.800Z,28.00
2022-11-26T05:18:36.834Z,26.00
2022-11-26T05:21:07.709Z,22.00
2022-11-26T05:23:35.710Z,27.00
2022-11-26T05:26:03.729Z,23.60
2022-11-26T05:28:31.785Z,24.20
2022-11-26T05:31:00.333Z,28.20
2022-11-26T05:33:28.375Z,22.33
2022-11-26T05:35:56.450Z,22.40
2022-11-26T05:38:25.816Z,24.50
2022-11-26T05:40:53.833Z,21.50
2022-11-26T05:43:21.842Z,27.00
2022-11-26T05:45:49.949Z,23.50
2022-11-26T05:48:17.993Z,30.00
2022-11-26T05:50:48.997Z,26.40
2022-11-26T05:53:21.099Z,25.00
2022-11-26T05:55:50.513Z,29.00
2022-11-26T05:58:18.518Z,28.80
2022-11-26T06:00:47.182Z,29.75
2022-11-26T06:03:19.775Z,23.60
2022-11-26T06:05:48.457Z,27.60
2022-11-26T06:08:16.469Z,23.00
2022-11-26T06:10:44.536Z,21.20
2022-11-26T06:13:14.188Z,30.50
2022-11-26T06:15:42.351Z,20.50
2022-11-26T06:18:10.358Z,31.80
2022-11-26T06:20:38.427Z,25.67
2022-11-26T06:23:06.439Z,23.00
2022-11-26T06:25:34.639Z,20.75
2022-11-26T06:28:02.812Z,25.40
2022-11-26T06:30:32.194Z,28.60
2022-11-26T06:33:00.192Z,23.00
2022-11-26T06:35:28.225Z,24.40
2022-11-26T06:37:56.230Z,18.80
2022-11-26T06:40:24.267Z,21.00
2022-11-26T06:42:52.646Z,21.40
2022-11-26T06:45:20.706Z,23.00
2022-11-26T06:47:51.125Z,24.60
2022-11-26T06:50:20.162Z,19.40
2022-11-26T06:52:48.704Z,21.00
2022-11-26T06:55:16.870Z,23.80
2022-11-26T06:57:44.860Z,19.00
2022-11-26T07:00:13.984Z,19.00
2022-11-26T07:02:42.662Z,18.50
2022-11-26T07:05:12.161Z,25.33
2022-11-26T07:07:40.436Z,18.75
2022-11-26T07:10:09.301Z,16.00
2022-11-26T07:12:37.284Z,19.60
2022-11-26T07:15:06.124Z,17.40
2022-11-26T07:17:34.165Z,18.50
2022-11-26T07:20:02.172Z,16.60
2022-11-26T07:22:31.545Z,14.80
2022-11-26T07:24:59.550Z,17.40
2022-11-26T07:27:27.569Z,17.00
2022-11-26T07:29:55.576Z,19.75
2022-11-26T07:32:23.758Z,11.50
2022-11-26T07:34:51.762Z,13.20
2022-11-26T07:37:19.794Z,12.00
2022-11-26T07:39:49.805Z,12.80
2022-11-26T07:42:17.836Z,12.60
2022-11-26T07:44:45.831Z,11.00
2022-11-26T07:47:13.889Z,11.20
2022-11-26T07:49:41.899Z,11.00
2022-11-26T07:52:09.925Z,10.25
2022-11-26T07:54:38.079Z,9.00
2022-11-26T07:57:07.680Z,9.80
2022-11-26T07:59:35.690Z,8.00
2022-11-26T08:02:03.805Z,10.40
2022-11-26T08:04:31.848Z,11.20
2022-11-26T08:06:59.872Z,15.00
2022-11-26T08:09:27.888Z,13.00
2022-11-26T08:11:55.909Z,10.20
2022-11-26T08:14:25.315Z,11.40
2022-11-26T08:16:53.362Z,10.00
2022-11-26T08:19:21.561Z,14.00
2022-11-26T08:21:49.592Z,9.20
2022-11-26T08:24:19.046Z,9.67
2022-11-26T08:26:47.073Z,9.60
2022-11-26T08:29:15.144Z,10.00
2022-11-26T08:31:46.423Z,9.00
2022-11-26T08:34:15.630Z,10.40
2022-11-26T08:36:43.654Z,10.40
2022-11-26T08:39:13.286Z,9.50
2022-11-26T08:41:41.317Z,10.00
2022-11-26T08:44:09.313Z,9.20
2022-11-26T08:46:37.663Z,9.00
2022-11-26T08:49:07.224Z,9.00
2022-11-26T08:51:35.441Z,8.75
2022-11-26T08:54:03.462Z,9.20
2022-11-26T08:56:31.545Z,11.00
2022-11-26T08:58:59.556Z,10.00
2022-11-26T09:01:28.541Z,9.00
2022-11-26T09:03:57.421Z,8.50
2022-11-26T09:06:28.399Z,9.00
2022-11-26T09:09:14.740Z,11.00
2022-11-26T09:11:45.657Z,9.00
2022-11-26T09:14:13.857Z,11.40
2022-11-26T09:16:41.968Z,10.00
2022-11-26T09:19:09.999Z,12.00
2022-11-26T09:21:39.481Z,9.50
2022-11-26T09:24:08.075Z,8.75
2022-11-26T09:26:36.181Z,9.25
2022-11-26T09:29:04.574Z,8.00
2022-11-26T09:31:32.774Z,12.00
2022-11-26T09:34:01.565Z,10.60
2022-11-26T09:36:29.801Z,7.00
2022-11-26T09:38:59.616Z,7.00
2022-11-26T09:41:39.714Z,12.00
2022-11-26T09:44:23.262Z,5.40
2022-11-26T09:47:11.509Z,5.50
2022-11-26T09:49:44.749Z,4.60
2022-11-26T09:52:12.772Z,6.50
2022-11-26T09:54:42.164Z,4.00
2022-11-26T09:57:17.239Z,7.75
2022-11-26T09:59:45.498Z,5.00
2022-11-26T10:02:13.615Z,7.60
2022-11-26T10:04:41.919Z,8.80
2022-11-26T10:07:15.662Z,6.00
2022-11-26T10:09:50.910Z,4.25
2022-11-26T10:12:26.577Z,4.00
2022-11-26T10:14:56.885Z,7.00
2022-11-26T10:17:30.803Z,5.00
2022-11-26T10:20:30.373Z,9.40
2022-11-26T10:22:59.662Z,4.75
2022-11-26T10:25:32.454Z,5.00
2022-11-26T10:28:00.521Z,10.00
2022-11-26T10:30:30.135Z,6.00
2022-11-26T10:32:59.482Z,10.50
2022-11-26T10:35:29.097Z,6.00
2022-11-26T10:37:57.454Z,6.00
2022-11-26T10:40:26.558Z,8.00
2022-11-26T10:43:02.161Z,8.50
2022-11-26T10:45:37.404Z,10.00
2022-11-26T10:48:21.920Z,10.00
2022-11-26T10:51:04.333Z,4.00
2022-11-26T10:53:35.577Z,11.80
2022-11-26T10:56:05.480Z,4.00
2022-11-26T10:58:38.773Z,8.00
2022-11-26T11:01:07.079Z,8.00
2022-11-26T11:06:36.188Z,6.40
2022-11-26T11:09:14.497Z,4.00
2022-11-26T11:11:42.501Z,6.00
2022-11-26T11:14:16.426Z,6.00
2022-11-26T11:16:46.315Z,6.00
2022-11-26T11:19:26.419Z,8.00
2022-11-26T11:21:54.457Z,11.00
2022-11-26T11:24:23.252Z,6.00
2022-11-26T11:26:53.481Z,10.00
2022-11-26T11:29:27.837Z,8.00
2022-11-26T11:31:56.080Z,9.00
2022-11-26T11:34:28.387Z,7.80
2022-11-26T11:37:00.209Z,8.00
2022-11-26T11:39:30.122Z,8.00
2022-11-26T11:41:58.995Z,7.40
2022-11-26T11:44:31.287Z,14.00
2022-11-26T11:47:12.965Z,10.00
2022-11-26T11:49:50.280Z,12.00
2022-11-26T11:52:23.513Z,12.50
2022-11-26T11:54:57.570Z,10.00
2022-11-26T11:57:39.065Z,11.00
2022-11-26T12:00:13.506Z,9.20
2022-11-26T12:02:58.204Z,11.00
2022-11-26T12:05:42.217Z,11.00
2022-11-26T12:08:18.338Z,9.40
2022-11-26T12:10:49.526Z,10.00
2022-11-26T12:13:17.566Z,13.00
2022-11-26T12:15:51.812Z,15.00
2022-11-26T12:18:23.125Z,9.50
2022-11-26T12:20:53.363Z,13.00
2022-11-26T12:23:27.713Z,12.00
2022-11-26T12:25:57.789Z,9.00
2022-11-26T12:28:26.839Z,11.25
2022-11-26T12:30:58.320Z,9.20
2022-11-26T12:33:28.865Z,11.00
2022-11-26T12:35:59.308Z,10.20
2022-11-26T12:38:29.130Z,6.40
2022-11-26T12:41:00.625Z,9.00
2022-11-26T12:43:31.214Z,6.60
2022-11-26T12:46:02.591Z,8.50
2022-11-26T12:48:36.472Z,9.40
2022-11-26T12:51:12.036Z,7.60
2022-11-26T12:53:43.521Z,8.00
2022-11-26T12:56:15.846Z,7.40
2022-11-26T12:58:48.833Z,5.60
2022-11-26T13:01:18.196Z,8.00
2022-11-26T13:03:46.291Z,5.20
2022-11-26T13:06:20.389Z,5.80
2022-11-26T13:08:51.293Z,6.00
2022-11-26T13:11:27.610Z,7.75
2022-11-26T13:13:59.606Z,9.00
2022-11-26T13:16:34.873Z,8.00
2022-11-26T13:19:06.954Z,7.00
2022-11-26T13:21:54.752Z,9.75
2022-11-26T13:24:33.143Z,9.60
2022-11-26T13:27:09.895Z,9.50
2022-11-26T13:29:57.565Z,10.60
2022-11-26T13:32:49.994Z,9.00
2022-11-26T13:35:23.142Z,9.60
2022-11-26T13:38:11.770Z,8.60
2022-11-26T13:40:50.895Z,10.25
2022-11-26T13:44:04.380Z,11.00
2022-11-26T13:46:32.458Z,11.00
2022-11-26T13:49:02.947Z,11.67
2022-11-26T13:51:33.806Z,10.40
2022-11-26T13:54:05.645Z,13.20
2022-11-26T13:56:34.037Z,10.50
2022-11-26T13:59:02.781Z,13.25
2022-11-26T14:01:36.904Z,12.60
2022-11-26T14:04:07.905Z,12.00
2022-11-26T14:06:36.057Z,11.40
2022-11-26T14:09:05.705Z,12.00
2022-11-26T14:11:57.020Z,11.00
2022-11-26T14:14:32.225Z,12.00
2022-11-26T14:17:23.375Z,11.67
2022-11-26T14:20:12.138Z,13.00
2022-11-26T14:22:40.177Z,11.80
2022-11-26T14:25:10.549Z,10.25
2022-11-26T14:27:41.171Z,13.40
2022-11-26T14:30:28.328Z,14.00
2022-11-26T14:33:02.733Z,13.25
2022-11-26T14:35:34.598Z,15.00
2022-11-26T14:38:04.594Z,20.75
2022-11-26T14:40:33.664Z,18.00
2022-11-26T14:43:15.822Z,15.00
2022-11-26T14:45:44.211Z,29.00
2022-11-26T14:48:25.437Z,26.40
2022-11-26T14:50:55.365Z,27.50
2022-11-26T14:53:24.424Z,20.50
2022-11-26T14:55:52.464Z,24.50
2022-11-26T14:58:21.959Z,16.50
2022-11-26T15:01:03.008Z,20.00
2022-11-26T15:03:31.471Z,17.20
2022-11-26T15:06:00.958Z,18.80
2022-11-26T15:08:29.018Z,20.00
2022-11-26T15:10:58.320Z,18.50
2022-11-26T15:13:29.196Z,16.00
2022-11-26T15:15:57.979Z,15.40
2022-11-26T15:18:29.165Z,14.00
2022-11-26T15:20:57.174Z,14.00
2022-11-26T15:23:28.993Z,19.00
2022-11-26T15:25:57.141Z,17.75
2022-11-26T15:28:25.351Z,23.00
2022-11-26T15:30:55.693Z,21.60
2022-11-26T15:33:23.998Z,13.00
2022-11-26T15:35:56.825Z,35.40
2022-11-26T15:38:27.002Z,36.33
2022-11-26T15:40:56.390Z,30.00
2022-11-26T15:43:27.978Z,27.00
2022-11-26T15:45:57.390Z,27.00
2022-11-26T15:48:44.139Z,24.40
2022-11-26T15:51:23.841Z,26.50
2022-11-26T15:53:53.225Z,24.25
2022-11-26T15:56:21.882Z,19.60
2022-11-26T15:58:51.422Z,15.20
2022-11-26T16:01:21.117Z,20.60
2022-11-26T16:03:50.032Z,18.00
2022-11-26T16:06:42.317Z,16.40
2022-11-26T16:09:27.876Z,21.00
2022-11-26T16:11:59.909Z,20.20
2022-11-26T16:14:33.206Z,19.25
2022-11-26T16:17:08.042Z,16.00
2022-11-26T16:19:37.148Z,16.60
2022-11-26T16:22:06.111Z,24.00
2022-11-26T16:24:39.035Z,21.00
2022-11-26T16:27:07.959Z,17.50
2022-11-26T16:29:36.856Z,18.00
2022-11-26T16:32:05.139Z,13.20
2022-11-26T16:34:33.176Z,13.00
2022-11-26T16:37:02.463Z,16.00
2022-11-26T16:39:33.816Z,17.50
2022-11-26T16:42:10.565Z,14.00
2022-11-26T16:44:38.848Z,20.80
2022-11-26T16:47:09.460Z,13.40
2022-11-26T16:49:37.490Z,13.25
2022-11-26T16:52:09.717Z,12.60
2022-11-26T16:54:38.980Z,25.50
2022-11-26T16:57:11.749Z,29.75
2022-11-26T16:59:40.039Z,21.00
2022-11-26T17:02:15.158Z,24.80
2022-11-26T17:04:43.464Z,22.00
2022-11-26T17:07:13.585Z,21.25
2022-11-26T17:09:41.994Z,21.50
2022-11-26T17:12:15.818Z,29.40
2022-11-26T17:14:44.091Z,26.20
2022-11-26T17:17:13.652Z,20.50
2022-11-26T17:19:42.021Z,18.00
2022-11-26T17:22:10.224Z,23.20
2022-11-26T17:24:38.526Z,25.00
2022-11-26T17:27:07.606Z,24.00
2022-11-26T17:29:42.762Z,21.00
2022-11-26T17:32:12.172Z,32.00
2022-11-26T17:34:40.193Z,25.60
2022-11-26T17:37:11.138Z,17.80
2022-11-26T17:39:39.359Z,21.25
2022-11-26T17:42:07.584Z,20.75
2022-11-26T17:44:36.970Z,24.00
2022-11-26T17:47:20.311Z,23.20
2022-11-26T17:49:48.507Z,30.00
2022-11-26T17:52:16.687Z,20.50
2022-11-26T17:54:45.105Z,32.50
2022-11-26T17:57:13.243Z,27.25
2022-11-26T17:59:43.059Z,25.40
2022-11-26T18:02:11.485Z,20.00
2022-11-26T18:04:39.574Z,16.50
2022-11-26T18:07:19.387Z,19.60
2022-11-26T18:09:47.885Z,24.25
2022-11-26T18:12:24.692Z,20.00
2022-11-26T18:14:55.074Z,22.00
2022-11-26T18:17:23.108Z,19.25
2022-11-26T18:19:51.364Z,20.20
2022-11-26T18:22:20.559Z,21.00
2022-11-26T18:24:56.590Z,24.60
2022-11-26T18:27:26.735Z,16.00
2022-11-26T18:29:56.113Z,19.00
2022-11-26T18:32:24.109Z,18.40
2022-11-26T18:34:52.201Z,18.40
2022-11-26T18:37:20.214Z,21.75
2022-11-26T18:39:48.333Z,16.00
2022-11-26T18:42:35.929Z,22.60
2022-11-26T18:45:06.736Z,20.00
2022-11-26T18:47:34.746Z,21.00
2022-11-26T18:50:02.802Z,20.00
2022-11-26T18:52:30.853Z,19.20
2022-11-26T18:55:00.048Z,26.40
2022-11-26T18:57:28.488Z,22.00
2022-11-26T18:59:56.509Z,29.00
2022-11-26T19:02:26.217Z,20.00
2022-11-26T19:04:54.318Z,26.50
2022-11-26T19:07:22.334Z,21.00
2022-11-26T19:09:50.408Z,48.00
2022-11-26T19:12:18.415Z,36.40
2022-11-26T19:14:46.440Z,38.00
2022-11-26T19:17:14.471Z,41.00
2022-11-26T19:19:43.902Z,37.25
2022-11-26T19:22:11.910Z,32.00
2022-11-26T19:24:39.932Z,34.00
2022-11-26T19:27:08.918Z,24.80
2022-11-26T19:29:36.993Z,21.60
2022-11-26T19:32:05.106Z,27.00
2022-11-26T19:34:33.132Z,20.40
2022-11-26T19:37:02.487Z,36.00
2022-11-26T19:39:30.616Z,47.00
2022-11-26T19:41:58.651Z,36.40
2022-11-26T19:44:26.674Z,27.00
2022-11-26T19:46:54.687Z,27.00
2022-11-26T19:49:22.744Z,21.00
2022-11-26T19:51:50.763Z,23.00
2022-11-26T19:54:20.151Z,22.50
2022-11-26T19:56:48.409Z,24.40
2022-11-26T19:59:16.721Z,24.25
2022-11-26T20:01:44.833Z,20.60
2022-11-26T20:04:14.064Z,25.50
2022-11-26T20:06:42.126Z,20.00
2022-11-26T20:09:10.488Z,21.80
2022-11-26T20:11:40.535Z,21.50
2022-11-26T20:14:10.658Z,26.25
2022-11-26T20:16:39.604Z,19.50
2022-11-26T20:19:07.622Z,17.00
2022-11-26T20:21:36.435Z,17.40
2022-11-26T20:24:06.380Z,19.00
2022-11-26T20:26:35.271Z,34.50
2022-11-26T20:29:05.915Z,28.75
2022-11-26T20:31:34.106Z,19.00
2022-11-26T20:34:02.980Z,25.40
2022-11-26T20:36:31.066Z,19.80
2022-11-26T20:39:00.954Z,19.80
2022-11-26T20:41:29.243Z,20.00
2022-11-26T20:43:59.448Z,19.50
2022-11-26T20:46:29.188Z,19.80
2022-11-26T20:48:57.645Z,31.00
2022-11-26T20:51:25.865Z,25.00
2022-11-26T20:53:54.096Z,38.00
2022-11-26T20:56:22.588Z,29.00
2022-11-26T20:58:50.816Z,28.75
2022-11-26T21:01:19.720Z,18.00
2022-11-26T21:03:49.148Z,12.00
2022-11-26T21:06:18.583Z,13.00
2022-11-26T21:08:46.649Z,17.60
2022-11-26T21:11:15.718Z,19.00
2022-11-26T21:13:43.836Z,14.80
2022-11-26T21:16:13.778Z,18.60
2022-11-26T21:18:41.801Z,15.80
2022-11-26T21:21:11.777Z,16.50
2022-11-26T21:23:39.961Z,15.80
2022-11-26T21:26:08.328Z,17.60
2022-11-26T21:28:36.338Z,20.00
2022-11-26T21:31:07.995Z,19.60
2022-11-26T21:33:36.029Z,17.60
2022-11-26T21:36:07.859Z,18.80
2022-11-26T21:38:37.717Z,17.00
2022-11-26T21:41:06.321Z,16.00
2022-11-26T21:43:34.334Z,23.50
2022-11-26T21:46:03.855Z,13.25
2022-11-26T21:48:32.122Z,17.20
2022-11-26T21:51:00.205Z,24.20
2022-11-26T21:53:28.207Z,24.00
2022-11-26T21:55:57.600Z,23.20
2022-11-26T21:58:25.632Z,21.00
2022-11-26T22:00:53.763Z,19.20
2022-11-26T22:03:21.861Z,20.50
2022-11-26T22:05:49.898Z,24.25
2022-11-26T22:08:17.896Z,16.50
2022-11-26T22:10:46.002Z,20.00
2022-11-26T22:13:15.415Z,19.00
2022-11-26T22:15:44.479Z,19.00
2022-11-26T22:18:12.540Z,22.00
2022-11-26T22:20:40.608Z,19.00
2022-11-26T22:23:08.615Z,17.80
2022-11-26T22:25:36.665Z,21.50
2022-11-26T22:28:04.795Z,21.40
2022-11-26T22:30:34.177Z,18.60
2022-11-26T22:33:03.841Z,20.00
2022-11-26T22:35:32.706Z,16.00
2022-11-26T22:38:00.719Z,19.25
2022-11-26T22:40:28.760Z,17.00
2022-11-26T22:42:58.724Z,25.00
2022-11-26T22:45:26.843Z,20.00
2022-11-26T22:47:56.206Z,24.75
2022-11-26T22:50:24.289Z,16.40
2022-11-26T22:52:52.344Z,18.00
2022-11-26T22:55:20.370Z,17.50
2022-11-26T22:57:48.364Z,20.50
2022-11-26T23:00:37.466Z,13.25
2022-11-26T23:03:07.056Z,14.00
2022-11-26T23:05:37.781Z,18.00
2022-11-26T23:08:05.994Z,19.00
2022-11-26T23:10:34.042Z,16.75
2022-11-26T23:13:02.038Z,17.67
2022-11-26T23:15:30.078Z,14.00
2022-11-26T23:17:58.086Z,17.00
2022-11-26T23:20:27.477Z,17.25
2022-11-26T23:22:55.482Z,22.50
2022-11-26T23:25:23.500Z,17.00
2022-11-26T23:27:51.499Z,18.00
2022-11-26T23:30:20.254Z,35.25
2022-11-26T23:32:48.252Z,31.00
2022-11-26T23:35:16.382Z,48.75
2022-11-26T23:37:45.732Z,36.60
2022-11-26T23:40:14.516Z,55.00
2022-11-26T23:42:42.532Z,47.50
2022-11-26T23:45:11.765Z,41.00
2022-11-26T23:47:40.858Z,29.00
2022-11-26T23:50:09.279Z,42.20
2022-11-26T23:52:37.285Z,27.40
2022-11-26T23:55:07.507Z,33.25
2022-11-26T23:57:35.529Z,33.00
